Bavaria, Kansas
Current Conditions -  °F | °C
As of 6:53 AM on Thursday 30 Oct 2014 (Local Time) from KSLN Reporting Station
Clear Clear  
Wind Chill: 50°   Ceiling: Unl
Heat Index: 50°   Visibility: 10mi
Dew Point: 39°   Wind: 15mph
Humidity: 66%   Direction: 320°NW
Pressure: 30.04"   Gusts: NA
Location:  38.8424°N, 97.6193°W
Report Text: KSLN 301153Z 32013KT 10SM CLR 10/04 A3004 RMK AO2 SLP172 T01000039 10122 20100 53019
Loading
Personal Weather Stations






























Interactive Weather Map
Tropical Storm Tracking
New forecast layout! Learn more

10-Day Weather Forecast

Advertisements
Track Severe Weather on mobile